sensor_id;sensor_type;location;lat;lon;timestamp;temperature;humidity
24262;DHT22;12385;51.412;5.540;2023-07-16T00:01:27;18.90;99.90
24262;DHT22;12385;51.412;5.540;2023-07-16T00:03:52;18.80;99.90
24262;DHT22;12385;51.412;5.540;2023-07-16T00:06:18;18.80;99.90
24262;DHT22;12385;51.412;5.540;2023-07-16T00:08:46;18.80;99.90
24262;DHT22;12385;51.412;5.540;2023-07-16T00:11:11;18.70;99.90
24262;DHT22;12385;51.412;5.540;2023-07-16T00:13:37;18.70;99.90
24262;DHT22;12385;51.412;5.540;2023-07-16T00:16:03;18.70;99.90
24262;DHT22;12385;51.412;5.540;2023-07-16T00:18:29;18.70;99.90
24262;DHT22;12385;51.412;5.540;2023-07-16T00:20:55;18.70;99.90
24262;DHT22;12385;51.412;5.540;2023-07-16T00:23:20;18.60;99.90
24262;DHT22;12385;51.412;5.540;2023-07-16T00:25:46;18.60;99.90
24262;DHT22;12385;51.412;5.540;2023-07-16T00:28:12;18.60;99.90
24262;DHT22;12385;51.412;5.540;2023-07-16T00:30:37;18.50;99.90
24262;DHT22;12385;51.412;5.540;2023-07-16T00:33:03;18.50;99.90
24262;DHT22;12385;51.412;5.540;2023-07-16T00:35:28;18.50;99.90
24262;DHT22;12385;51.412;5.540;2023-07-16T00:37:54;18.60;99.90
24262;DHT22;12385;51.412;5.540;2023-07-16T00:40:20;18.60;99.90
24262;DHT22;12385;51.412;5.540;2023-07-16T00:42:45;18.50;99.90
24262;DHT22;12385;51.412;5.540;2023-07-16T00:45:14;18.50;99.90
24262;DHT22;12385;51.412;5.540;2023-07-16T00:47:41;18.40;99.90
24262;DHT22;12385;51.412;5.540;2023-07-16T00:50:10;18.40;99.90
24262;DHT22;12385;51.412;5.540;2023-07-16T00:52:37;18.50;99.90
24262;DHT22;12385;51.412;5.540;2023-07-16T00:55:03;18.50;99.90
24262;DHT22;12385;51.412;5.540;2023-07-16T00:57:30;18.50;99.90
24262;DHT22;12385;51.412;5.540;2023-07-16T00:59:56;18.50;99.90
24262;DHT22;12385;51.412;5.540;2023-07-16T01:02:21;18.50;99.90
24262;DHT22;12385;51.412;5.540;2023-07-16T01:04:47;18.50;99.90
24262;DHT22;12385;51.412;5.540;2023-07-16T01:07:14;18.50;99.90
24262;DHT22;12385;51.412;5.540;2023-07-16T01:09:44;18.50;99.90
24262;DHT22;12385;51.412;5.540;2023-07-16T01:12:11;18.50;99.90
24262;DHT22;12385;51.412;5.540;2023-07-16T01:14:39;18.50;99.90
24262;DHT22;12385;51.412;5.540;2023-07-16T01:17:05;18.40;99.90
24262;DHT22;12385;51.412;5.540;2023-07-16T01:19:33;18.40;99.90
24262;DHT22;12385;51.412;5.540;2023-07-16T01:24:36;18.40;99.90
24262;DHT22;12385;51.412;5.540;2023-07-16T01:29:49;18.20;99.90
24262;DHT22;12385;51.412;5.540;2023-07-16T01:32:17;18.20;99.90
24262;DHT22;12385;51.412;5.540;2023-07-16T01:34:44;18.20;99.90
24262;DHT22;12385;51.412;5.540;2023-07-16T01:37:10;18.10;99.90
24262;DHT22;12385;51.412;5.540;2023-07-16T01:39:36;18.10;99.90
24262;DHT22;12385;51.412;5.540;2023-07-16T01:42:02;18.00;99.90
24262;DHT22;12385;51.412;5.540;2023-07-16T01:44:28;17.90;99.90
24262;DHT22;12385;51.412;5.540;2023-07-16T01:47:09;17.90;99.90
24262;DHT22;12385;51.412;5.540;2023-07-16T01:49:34;17.80;99.90
24262;DHT22;12385;51.412;5.540;2023-07-16T01:52:02;17.80;99.90
24262;DHT22;12385;51.412;5.540;2023-07-16T01:54:28;17.70;99.90
24262;DHT22;12385;51.412;5.540;2023-07-16T01:56:54;17.70;99.90
24262;DHT22;12385;51.412;5.540;2023-07-16T01:59:20;17.60;99.90
24262;DHT22;12385;51.412;5.540;2023-07-16T02:01:45;17.60;99.90
24262;DHT22;12385;51.412;5.540;2023-07-16T02:04:11;17.60;99.90
24262;DHT22;12385;51.412;5.540;2023-07-16T02:06:36;17.60;99.90
24262;DHT22;12385;51.412;5.540;2023-07-16T02:09:02;17.50;99.90
24262;DHT22;12385;51.412;5.540;2023-07-16T02:11:28;17.50;99.90
24262;DHT22;12385;51.412;5.540;2023-07-16T02:13:54;17.50;99.90
24262;DHT22;12385;51.412;5.540;2023-07-16T02:16:20;17.50;99.90
24262;DHT22;12385;51.412;5.540;2023-07-16T02:18:45;17.50;99.90
24262;DHT22;12385;51.412;5.540;2023-07-16T02:21:11;17.50;99.90
24262;DHT22;12385;51.412;5.540;2023-07-16T02:23:36;17.40;99.90
24262;DHT22;12385;51.412;5.540;2023-07-16T02:26:02;17.40;99.90
24262;DHT22;12385;51.412;5.540;2023-07-16T02:28:28;17.30;99.90
24262;DHT22;12385;51.412;5.540;2023-07-16T02:30:54;17.30;99.90
24262;DHT22;12385;51.412;5.540;2023-07-16T02:33:21;17.30;99.90
24262;DHT22;12385;51.412;5.540;2023-07-16T02:35:47;17.30;99.90
24262;DHT22;12385;51.412;5.540;2023-07-16T02:38:17;17.30;99.90
24262;DHT22;12385;51.412;5.540;2023-07-16T02:40:48;17.20;99.90
24262;DHT22;12385;51.412;5.540;2023-07-16T02:43:14;17.20;99.90
24262;DHT22;12385;51.412;5.540;2023-07-16T02:45:40;17.20;99.90
24262;DHT22;12385;51.412;5.540;2023-07-16T02:48:06;17.20;99.90
24262;DHT22;12385;51.412;5.540;2023-07-16T02:50:36;17.10;99.90
24262;DHT22;12385;51.412;5.540;2023-07-16T02:53:05;17.10;99.90
24262;DHT22;12385;51.412;5.540;2023-07-16T02:55:32;17.00;99.90
24262;DHT22;12385;51.412;5.540;2023-07-16T02:57:57;17.00;99.90
24262;DHT22;12385;51.412;5.540;2023-07-16T03:00:23;16.90;99.90
24262;DHT22;12385;51.412;5.540;2023-07-16T03:02:49;16.90;99.90
24262;DHT22;12385;51.412;5.540;2023-07-16T03:05:16;16.90;99.90
24262;DHT22;12385;51.412;5.540;2023-07-16T03:07:42;16.90;99.90
24262;DHT22;12385;51.412;5.540;2023-07-16T03:10:08;16.80;99.90
24262;DHT22;12385;51.412;5.540;2023-07-16T03:12:33;16.80;99.90
24262;DHT22;12385;51.412;5.540;2023-07-16T03:14:59;16.80;99.90
24262;DHT22;12385;51.412;5.540;2023-07-16T03:17:24;16.70;99.90
24262;DHT22;12385;51.412;5.540;2023-07-16T03:19:50;16.70;99.90
24262;DHT22;12385;51.412;5.540;2023-07-16T03:22:16;16.70;99.90
24262;DHT22;12385;51.412;5.540;2023-07-16T03:24:41;16.60;99.90
24262;DHT22;12385;51.412;5.540;2023-07-16T03:27:07;16.60;99.90
24262;DHT22;12385;51.412;5.540;2023-07-16T03:29:33;16.50;99.90
24262;DHT22;12385;51.412;5.540;2023-07-16T03:31:59;16.50;99.90
24262;DHT22;12385;51.412;5.540;2023-07-16T03:34:25;16.50;99.90
24262;DHT22;12385;51.412;5.540;2023-07-16T03:36:51;16.40;99.90
24262;DHT22;12385;51.412;5.540;2023-07-16T03:39:17;16.40;99.90
24262;DHT22;12385;51.412;5.540;2023-07-16T03:41:43;16.30;99.90
24262;DHT22;12385;51.412;5.540;2023-07-16T03:44:08;16.30;99.90
24262;DHT22;12385;51.412;5.540;2023-07-16T03:46:34;16.30;99.90
24262;DHT22;12385;51.412;5.540;2023-07-16T03:49:01;16.20;99.90
24262;DHT22;12385;51.412;5.540;2023-07-16T03:51:26;16.20;99.90
24262;DHT22;12385;51.412;5.540;2023-07-16T03:53:52;16.20;99.90
24262;DHT22;12385;51.412;5.540;2023-07-16T03:56:17;16.10;99.90
24262;DHT22;12385;51.412;5.540;2023-07-16T03:58:43;16.10;99.90
24262;DHT22;12385;51.412;5.540;2023-07-16T04:01:09;16.10;99.90
24262;DHT22;12385;51.412;5.540;2023-07-16T04:03:35;16.10;99.90
24262;DHT22;12385;51.412;5.540;2023-07-16T04:06:05;16.10;99.90
24262;DHT22;12385;51.412;5.540;2023-07-16T04:08:31;16.10;99.90
24262;DHT22;12385;51.412;5.540;2023-07-16T04:10:56;16.00;99.90
24262;DHT22;12385;51.412;5.540;2023-07-16T04:13:22;16.00;99.90
24262;DHT22;12385;51.412;5.540;2023-07-16T04:15:48;16.00;99.90
24262;DHT22;12385;51.412;5.540;2023-07-16T04:18:13;16.00;99.90
24262;DHT22;12385;51.412;5.540;2023-07-16T04:20:39;16.00;99.90
24262;DHT22;12385;51.412;5.540;2023-07-16T04:23:04;16.00;99.90
24262;DHT22;12385;51.412;5.540;2023-07-16T04:25:30;16.00;99.90
24262;DHT22;12385;51.412;5.540;2023-07-16T04:27:56;16.00;99.90
24262;DHT22;12385;51.412;5.540;2023-07-16T04:30:22;16.00;99.90
24262;DHT22;12385;51.412;5.540;2023-07-16T04:32:48;16.00;99.90
24262;DHT22;12385;51.412;5.540;2023-07-16T04:35:13;16.00;99.90
24262;DHT22;12385;51.412;5.540;2023-07-16T04:37:39;16.00;99.90
24262;DHT22;12385;51.412;5.540;2023-07-16T04:40:05;16.00;99.90
24262;DHT22;12385;51.412;5.540;2023-07-16T04:42:31;15.90;99.90
24262;DHT22;12385;51.412;5.540;2023-07-16T04:44:57;16.00;99.90
24262;DHT22;12385;51.412;5.540;2023-07-16T04:47:22;16.00;99.90
24262;DHT22;12385;51.412;5.540;2023-07-16T04:49:48;15.90;99.90
24262;DHT22;12385;51.412;5.540;2023-07-16T04:52:13;16.00;99.90
24262;DHT22;12385;51.412;5.540;2023-07-16T04:54:39;16.00;99.90
24262;DHT22;12385;51.412;5.540;2023-07-16T04:57:08;16.00;99.90
24262;DHT22;12385;51.412;5.540;2023-07-16T04:59:34;16.00;99.90
24262;DHT22;12385;51.412;5.540;2023-07-16T05:02:01;16.00;99.90
24262;DHT22;12385;51.412;5.540;2023-07-16T05:04:27;16.00;99.90
24262;DHT22;12385;51.412;5.540;2023-07-16T05:06:53;16.00;99.90
24262;DHT22;12385;51.412;5.540;2023-07-16T05:09:19;16.00;99.90
24262;DHT22;12385;51.412;5.540;2023-07-16T05:11:45;16.00;99.90
24262;DHT22;12385;51.412;5.540;2023-07-16T05:14:11;16.10;99.90
24262;DHT22;12385;51.412;5.540;2023-07-16T05:16:37;16.20;99.90
24262;DHT22;12385;51.412;5.540;2023-07-16T05:19:03;16.20;99.90
24262;DHT22;12385;51.412;5.540;2023-07-16T05:21:28;16.20;99.90
24262;DHT22;12385;51.412;5.540;2023-07-16T05:23:54;16.20;99.90
24262;DHT22;12385;51.412;5.540;2023-07-16T05:26:19;16.20;99.90
24262;DHT22;12385;51.412;5.540;2023-07-16T05:28:45;16.20;99.90
24262;DHT22;12385;51.412;5.540;2023-07-16T05:31:11;16.30;99.90
24262;DHT22;12385;51.412;5.540;2023-07-16T05:33:36;16.30;99.90
24262;DHT22;12385;51.412;5.540;2023-07-16T05:36:02;16.30;99.90
24262;DHT22;12385;51.412;5.540;2023-07-16T05:38:28;16.40;99.90
24262;DHT22;12385;51.412;5.540;2023-07-16T05:40:53;16.40;99.90
24262;DHT22;12385;51.412;5.540;2023-07-16T05:43:24;16.50;99.90
24262;DHT22;12385;51.412;5.540;2023-07-16T05:45:50;16.50;99.90
24262;DHT22;12385;51.412;5.540;2023-07-16T05:48:16;16.50;99.90
24262;DHT22;12385;51.412;5.540;2023-07-16T05:50:44;16.60;99.90
24262;DHT22;12385;51.412;5.540;2023-07-16T05:53:11;16.60;99.90
24262;DHT22;12385;51.412;5.540;2023-07-16T05:55:40;16.70;99.90
24262;DHT22;12385;51.412;5.540;2023-07-16T05:58:05;16.80;99.90
24262;DHT22;12385;51.412;5.540;2023-07-16T06:00:31;16.80;99.90
24262;DHT22;12385;51.412;5.540;2023-07-16T06:02:57;16.80;99.90
24262;DHT22;12385;51.412;5.540;2023-07-16T06:05:23;16.90;99.90
24262;DHT22;12385;51.412;5.540;2023-07-16T06:07:51;17.00;99.90
24262;DHT22;12385;51.412;5.540;2023-07-16T06:10:17;17.00;99.90
24262;DHT22;12385;51.412;5.540;2023-07-16T06:12:42;17.00;99.90
24262;DHT22;12385;51.412;5.540;2023-07-16T06:15:09;17.10;99.90
24262;DHT22;12385;51.412;5.540;2023-07-16T06:17:35;17.10;99.90
24262;DHT22;12385;51.412;5.540;2023-07-16T06:20:02;17.10;99.90
24262;DHT22;12385;51.412;5.540;2023-07-16T06:22:28;17.10;99.90
24262;DHT22;12385;51.412;5.540;2023-07-16T06:24:53;17.20;99.90
24262;DHT22;12385;51.412;5.540;2023-07-16T06:27:19;17.20;99.90
24262;DHT22;12385;51.412;5.540;2023-07-16T06:29:45;17.20;99.90
24262;DHT22;12385;51.412;5.540;2023-07-16T06:32:10;17.30;99.90
24262;DHT22;12385;51.412;5.540;2023-07-16T06:34:36;17.30;99.90
24262;DHT22;12385;51.412;5.540;2023-07-16T06:37:02;17.40;99.90
24262;DHT22;12385;51.412;5.540;2023-07-16T06:39:27;17.40;99.90
24262;DHT22;12385;51.412;5.540;2023-07-16T06:41:53;17.50;99.90
24262;DHT22;12385;51.412;5.540;2023-07-16T06:44:19;17.60;99.90
24262;DHT22;12385;51.412;5.540;2023-07-16T06:46:45;17.60;99.90
24262;DHT22;12385;51.412;5.540;2023-07-16T06:49:10;17.70;99.90
24262;DHT22;12385;51.412;5.540;2023-07-16T06:51:36;17.80;99.90
24262;DHT22;12385;51.412;5.540;2023-07-16T06:54:01;17.80;99.90
24262;DHT22;12385;51.412;5.540;2023-07-16T06:56:27;17.80;99.90
24262;DHT22;12385;51.412;5.540;2023-07-16T06:58:53;17.90;99.90
24262;DHT22;12385;51.412;5.540;2023-07-16T07:01:18;17.90;99.90
24262;DHT22;12385;51.412;5.540;2023-07-16T07:03:44;17.90;99.90
24262;DHT22;12385;51.412;5.540;2023-07-16T07:06:10;18.00;99.90
24262;DHT22;12385;51.412;5.540;2023-07-16T07:08:36;18.10;99.90
24262;DHT22;12385;51.412;5.540;2023-07-16T07:11:03;18.10;99.90
24262;DHT22;12385;51.412;5.540;2023-07-16T07:13:29;18.10;99.90
24262;DHT22;12385;51.412;5.540;2023-07-16T07:15:55;18.20;99.90
24262;DHT22;12385;51.412;5.540;2023-07-16T07:18:21;18.30;99.90
24262;DHT22;12385;51.412;5.540;2023-07-16T07:20:47;18.30;99.90
24262;DHT22;12385;51.412;5.540;2023-07-16T07:23:16;18.40;99.90
24262;DHT22;12385;51.412;5.540;2023-07-16T07:25:42;18.30;99.90
24262;DHT22;12385;51.412;5.540;2023-07-16T07:28:07;18.40;99.90
24262;DHT22;12385;51.412;5.540;2023-07-16T07:30:33;18.50;99.90
24262;DHT22;12385;51.412;5.540;2023-07-16T07:32:59;18.50;99.90
24262;DHT22;12385;51.412;5.540;2023-07-16T07:35:24;18.60;99.90
24262;DHT22;12385;51.412;5.540;2023-07-16T07:37:51;18.60;99.90
24262;DHT22;12385;51.412;5.540;2023-07-16T07:40:18;18.70;99.90
24262;DHT22;12385;51.412;5.540;2023-07-16T07:42:44;18.70;99.90
24262;DHT22;12385;51.412;5.540;2023-07-16T07:45:10;18.80;99.90
24262;DHT22;12385;51.412;5.540;2023-07-16T07:47:36;18.90;99.90
24262;DHT22;12385;51.412;5.540;2023-07-16T07:50:01;18.90;99.90
24262;DHT22;12385;51.412;5.540;2023-07-16T07:52:27;19.00;99.90
24262;DHT22;12385;51.412;5.540;2023-07-16T07:54:53;19.10;99.90
24262;DHT22;12385;51.412;5.540;2023-07-16T07:57:19;19.10;99.90
24262;DHT22;12385;51.412;5.540;2023-07-16T07:59:45;19.20;99.90
24262;DHT22;12385;51.412;5.540;2023-07-16T08:02:11;19.30;99.90
24262;DHT22;12385;51.412;5.540;2023-07-16T08:04:36;19.40;99.90
24262;DHT22;12385;51.412;5.540;2023-07-16T08:07:02;19.40;99.90
24262;DHT22;12385;51.412;5.540;2023-07-16T08:09:28;19.50;99.90
24262;DHT22;12385;51.412;5.540;2023-07-16T08:11:54;19.40;99.90
24262;DHT22;12385;51.412;5.540;2023-07-16T08:14:19;19.50;99.90
24262;DHT22;12385;51.412;5.540;2023-07-16T08:16:45;19.50;99.90
24262;DHT22;12385;51.412;5.540;2023-07-16T08:19:11;19.50;99.90
24262;DHT22;12385;51.412;5.540;2023-07-16T08:21:36;19.50;99.90
24262;DHT22;12385;51.412;5.540;2023-07-16T08:24:06;19.60;99.90
24262;DHT22;12385;51.412;5.540;2023-07-16T08:26:32;19.70;99.90
24262;DHT22;12385;51.412;5.540;2023-07-16T08:28:58;19.80;99.90
24262;DHT22;12385;51.412;5.540;2023-07-16T08:31:24;19.90;99.90
24262;DHT22;12385;51.412;5.540;2023-07-16T08:33:51;20.00;99.90
24262;DHT22;12385;51.412;5.540;2023-07-16T08:36:16;20.10;99.90
24262;DHT22;12385;51.412;5.540;2023-07-16T08:38:42;20.20;99.90
24262;DHT22;12385;51.412;5.540;2023-07-16T08:41:08;20.30;99.90
24262;DHT22;12385;51.412;5.540;2023-07-16T08:43:35;20.40;99.90
24262;DHT22;12385;51.412;5.540;2023-07-16T08:46:01;20.40;99.90
24262;DHT22;12385;51.412;5.540;2023-07-16T08:48:29;20.40;99.90
24262;DHT22;12385;51.412;5.540;2023-07-16T08:50:55;20.40;99.90
24262;DHT22;12385;51.412;5.540;2023-07-16T08:53:21;20.40;99.90
24262;DHT22;12385;51.412;5.540;2023-07-16T08:55:47;20.50;99.90
24262;DHT22;12385;51.412;5.540;2023-07-16T08:58:14;20.50;99.90
24262;DHT22;12385;51.412;5.540;2023-07-16T09:00:42;20.60;99.90
24262;DHT22;12385;51.412;5.540;2023-07-16T09:03:12;20.60;99.90
24262;DHT22;12385;51.412;5.540;2023-07-16T09:05:39;20.80;99.90
24262;DHT22;12385;51.412;5.540;2023-07-16T09:08:06;20.90;99.90
24262;DHT22;12385;51.412;5.540;2023-07-16T09:10:32;20.90;99.90
24262;DHT22;12385;51.412;5.540;2023-07-16T09:12:58;21.00;99.90
24262;DHT22;12385;51.412;5.540;2023-07-16T09:15:24;21.10;99.90
24262;DHT22;12385;51.412;5.540;2023-07-16T09:17:53;21.20;99.90
24262;DHT22;12385;51.412;5.540;2023-07-16T09:20:19;21.30;99.90
24262;DHT22;12385;51.412;5.540;2023-07-16T09:22:46;21.30;99.90
24262;DHT22;12385;51.412;5.540;2023-07-16T09:25:12;21.30;99.90
24262;DHT22;12385;51.412;5.540;2023-07-16T09:27:38;21.40;99.90
24262;DHT22;12385;51.412;5.540;2023-07-16T09:30:04;21.50;99.90
24262;DHT22;12385;51.412;5.540;2023-07-16T09:32:40;21.70;99.90
24262;DHT22;12385;51.412;5.540;2023-07-16T09:35:13;21.80;99.90
24262;DHT22;12385;51.412;5.540;2023-07-16T09:37:39;21.90;99.90
24262;DHT22;12385;51.412;5.540;2023-07-16T09:40:10;21.90;99.90
24262;DHT22;12385;51.412;5.540;2023-07-16T09:42:37;21.90;99.90
24262;DHT22;12385;51.412;5.540;2023-07-16T09:45:07;21.90;99.90
24262;DHT22;12385;51.412;5.540;2023-07-16T09:47:37;22.00;99.90
24262;DHT22;12385;51.412;5.540;2023-07-16T09:50:03;22.00;99.90
24262;DHT22;12385;51.412;5.540;2023-07-16T09:52:31;22.00;99.90
24262;DHT22;12385;51.412;5.540;2023-07-16T09:55:01;22.00;99.90
24262;DHT22;12385;51.412;5.540;2023-07-16T09:57:28;22.10;99.90
24262;DHT22;12385;51.412;5.540;2023-07-16T09:59:56;22.00;99.90
24262;DHT22;12385;51.412;5.540;2023-07-16T10:02:22;22.10;99.90
24262;DHT22;12385;51.412;5.540;2023-07-16T10:04:48;22.20;99.90
24262;DHT22;12385;51.412;5.540;2023-07-16T10:07:21;22.30;99.90
24262;DHT22;12385;51.412;5.540;2023-07-16T10:09:57;22.20;99.90
24262;DHT22;12385;51.412;5.540;2023-07-16T10:12:24;22.10;99.90
24262;DHT22;12385;51.412;5.540;2023-07-16T10:14:51;22.10;99.90
24262;DHT22;12385;51.412;5.540;2023-07-16T10:17:23;22.10;99.90
24262;DHT22;12385;51.412;5.540;2023-07-16T10:22:42;22.10;99.90
24262;DHT22;12385;51.412;5.540;2023-07-16T10:27:34;22.20;99.70
24262;DHT22;12385;51.412;5.540;2023-07-16T10:30:01;22.10;99.50
24262;DHT22;12385;51.412;5.540;2023-07-16T10:32:31;22.10;99.90
24262;DHT22;12385;51.412;5.540;2023-07-16T10:34:58;22.00;99.90
24262;DHT22;12385;51.412;5.540;2023-07-16T10:37:25;22.00;99.90
24262;DHT22;12385;51.412;5.540;2023-07-16T10:39:54;22.10;99.90
24262;DHT22;12385;51.412;5.540;2023-07-16T10:42:21;22.10;99.90
24262;DHT22;12385;51.412;5.540;2023-07-16T10:44:52;22.30;99.70
24262;DHT22;12385;51.412;5.540;2023-07-16T10:47:24;22.30;99.60
24262;DHT22;12385;51.412;5.540;2023-07-16T10:49:51;22.30;98.90
24262;DHT22;12385;51.412;5.540;2023-07-16T10:52:21;22.20;98.60
24262;DHT22;12385;51.412;5.540;2023-07-16T10:54:48;22.10;98.90
24262;DHT22;12385;51.412;5.540;2023-07-16T10:57:20;22.10;99.10
24262;DHT22;12385;51.412;5.540;2023-07-16T10:59:47;22.00;99.10
24262;DHT22;12385;51.412;5.540;2023-07-16T11:02:16;22.10;99.70
24262;DHT22;12385;51.412;5.540;2023-07-16T11:04:43;22.10;99.30
24262;DHT22;12385;51.412;5.540;2023-07-16T11:07:11;22.20;99.20
24262;DHT22;12385;51.412;5.540;2023-07-16T11:09:51;22.10;98.90
24262;DHT22;12385;51.412;5.540;2023-07-16T11:12:20;22.20;98.80
24262;DHT22;12385;51.412;5.540;2023-07-16T11:14:48;22.20;98.80
24262;DHT22;12385;51.412;5.540;2023-07-16T11:17:15;22.20;98.80
24262;DHT22;12385;51.412;5.540;2023-07-16T11:19:44;22.20;98.50
24262;DHT22;12385;51.412;5.540;2023-07-16T11:22:10;22.20;98.40
24262;DHT22;12385;51.412;5.540;2023-07-16T11:24:44;22.20;98.60
24262;DHT22;12385;51.412;5.540;2023-07-16T11:27:16;22.30;98.90
24262;DHT22;12385;51.412;5.540;2023-07-16T11:29:55;22.20;99.30
24262;DHT22;12385;51.412;5.540;2023-07-16T11:32:36;22.20;98.80
24262;DHT22;12385;51.412;5.540;2023-07-16T11:35:06;22.10;98.90
24262;DHT22;12385;51.412;5.540;2023-07-16T11:37:34;22.00;98.80
24262;DHT22;12385;51.412;5.540;2023-07-16T11:40:05;22.00;99.50
24262;DHT22;12385;51.412;5.540;2023-07-16T11:42:37;22.00;99.90
24262;DHT22;12385;51.412;5.540;2023-07-16T11:45:04;22.10;99.90
24262;DHT22;12385;51.412;5.540;2023-07-16T11:47:30;22.20;99.90
24262;DHT22;12385;51.412;5.540;2023-07-16T11:49:56;22.30;99.90
24262;DHT22;12385;51.412;5.540;2023-07-16T11:52:28;22.60;99.90
24262;DHT22;12385;51.412;5.540;2023-07-16T11:54:56;22.80;99.90
24262;DHT22;12385;51.412;5.540;2023-07-16T11:57:23;22.90;99.20
24262;DHT22;12385;51.412;5.540;2023-07-16T11:59:48;22.90;98.60
24262;DHT22;12385;51.412;5.540;2023-07-16T12:02:14;22.80;98.30
24262;DHT22;12385;51.412;5.540;2023-07-16T12:04:40;22.80;97.80
24262;DHT22;12385;51.412;5.540;2023-07-16T12:07:06;22.70;97.60
24262;DHT22;12385;51.412;5.540;2023-07-16T12:09:32;22.80;97.50
24262;DHT22;12385;51.412;5.540;2023-07-16T12:11:58;23.00;97.60
24262;DHT22;12385;51.412;5.540;2023-07-16T12:14:24;23.10;97.60
24262;DHT22;12385;51.412;5.540;2023-07-16T12:16:50;23.20;97.30
24262;DHT22;12385;51.412;5.540;2023-07-16T12:19:15;23.30;97.30
24262;DHT22;12385;51.412;5.540;2023-07-16T12:21:41;23.50;97.00
24262;DHT22;12385;51.412;5.540;2023-07-16T12:24:07;23.60;96.50
24262;DHT22;12385;51.412;5.540;2023-07-16T12:26:35;23.70;96.70
24262;DHT22;12385;51.412;5.540;2023-07-16T12:29:02;23.70;96.30
24262;DHT22;12385;51.412;5.540;2023-07-16T12:31:33;23.70;96.00
24262;DHT22;12385;51.412;5.540;2023-07-16T12:33:59;23.70;95.90
24262;DHT22;12385;51.412;5.540;2023-07-16T12:36:27;23.60;95.90
24262;DHT22;12385;51.412;5.540;2023-07-16T12:38:53;23.50;96.40
24262;DHT22;12385;51.412;5.540;2023-07-16T12:41:19;23.40;95.90
24262;DHT22;12385;51.412;5.540;2023-07-16T12:43:46;23.20;95.50
24262;DHT22;12385;51.412;5.540;2023-07-16T12:46:12;23.10;95.70
24262;DHT22;12385;51.412;5.540;2023-07-16T12:48:38;23.10;96.30
24262;DHT22;12385;51.412;5.540;2023-07-16T12:51:03;23.20;96.70
24262;DHT22;12385;51.412;5.540;2023-07-16T12:53:29;23.40;96.20
24262;DHT22;12385;51.412;5.540;2023-07-16T12:55:55;23.60;95.70
24262;DHT22;12385;51.412;5.540;2023-07-16T12:58:21;23.90;95.30
24262;DHT22;12385;51.412;5.540;2023-07-16T13:00:47;24.30;95.80
24262;DHT22;12385;51.412;5.540;2023-07-16T13:03:13;24.70;94.90
24262;DHT22;12385;51.412;5.540;2023-07-16T13:05:42;24.90;93.90
24262;DHT22;12385;51.412;5.540;2023-07-16T13:08:09;24.90;93.40
24262;DHT22;12385;51.412;5.540;2023-07-16T13:10:35;25.00;93.50
24262;DHT22;12385;51.412;5.540;2023-07-16T13:13:01;25.20;92.90
24262;DHT22;12385;51.412;5.540;2023-07-16T13:15:29;25.10;92.10
24262;DHT22;12385;51.412;5.540;2023-07-16T13:17:55;24.90;92.10
24262;DHT22;12385;51.412;5.540;2023-07-16T13:20:21;24.80;92.10
24262;DHT22;12385;51.412;5.540;2023-07-16T13:22:47;24.70;92.20
24262;DHT22;12385;51.412;5.540;2023-07-16T13:25:13;24.80;92.60
24262;DHT22;12385;51.412;5.540;2023-07-16T13:27:39;25.20;92.90
24262;DHT22;12385;51.412;5.540;2023-07-16T13:30:06;25.90;91.90
24262;DHT22;12385;51.412;5.540;2023-07-16T13:32:32;26.30;90.60
24262;DHT22;12385;51.412;5.540;2023-07-16T13:34:58;26.40;89.20
24262;DHT22;12385;51.412;5.540;2023-07-16T13:37:23;26.50;87.90
24262;DHT22;12385;51.412;5.540;2023-07-16T13:39:49;26.70;87.30
24262;DHT22;12385;51.412;5.540;2023-07-16T13:42:15;26.70;86.20
24262;DHT22;12385;51.412;5.540;2023-07-16T13:44:41;26.50;85.60
24262;DHT22;12385;51.412;5.540;2023-07-16T13:47:06;26.30;85.50
24262;DHT22;12385;51.412;5.540;2023-07-16T13:49:32;26.00;84.80
24262;DHT22;12385;51.412;5.540;2023-07-16T13:51:58;25.80;84.90
24262;DHT22;12385;51.412;5.540;2023-07-16T13:54:24;25.60;85.00
24262;DHT22;12385;51.412;5.540;2023-07-16T13:56:50;25.70;85.10
24262;DHT22;12385;51.412;5.540;2023-07-16T13:59:15;25.70;84.50
24262;DHT22;12385;51.412;5.540;2023-07-16T14:01:42;25.80;84.20
24262;DHT22;12385;51.412;5.540;2023-07-16T14:04:08;25.80;84.40
24262;DHT22;12385;51.412;5.540;2023-07-16T14:06:33;25.90;84.00
24262;DHT22;12385;51.412;5.540;2023-07-16T14:09:00;26.10;85.00
24262;DHT22;12385;51.412;5.540;2023-07-16T14:11:30;26.20;84.70
24262;DHT22;12385;51.412;5.540;2023-07-16T14:13:56;26.10;83.90
24262;DHT22;12385;51.412;5.540;2023-07-16T14:16:22;26.30;83.30
24262;DHT22;12385;51.412;5.540;2023-07-16T14:18:51;26.60;82.90
24262;DHT22;12385;51.412;5.540;2023-07-16T14:21:18;27.20;81.60
24262;DHT22;12385;51.412;5.540;2023-07-16T14:23:43;27.70;78.60
24262;DHT22;12385;51.412;5.540;2023-07-16T14:26:10;27.90;77.50
24262;DHT22;12385;51.412;5.540;2023-07-16T14:28:36;28.00;75.60
24262;DHT22;12385;51.412;5.540;2023-07-16T14:31:02;28.00;74.40
24262;DHT22;12385;51.412;5.540;2023-07-16T14:33:28;27.80;73.30
24262;DHT22;12385;51.412;5.540;2023-07-16T14:35:54;27.50;72.90
24262;DHT22;12385;51.412;5.540;2023-07-16T14:38:19;27.00;73.00
24262;DHT22;12385;51.412;5.540;2023-07-16T14:40:45;26.60;74.70
24262;DHT22;12385;51.412;5.540;2023-07-16T14:43:11;26.20;75.10
24262;DHT22;12385;51.412;5.540;2023-07-16T14:45:37;26.00;76.00
24262;DHT22;12385;51.412;5.540;2023-07-16T14:48:04;26.10;78.10
24262;DHT22;12385;51.412;5.540;2023-07-16T14:50:30;26.60;77.70
24262;DHT22;12385;51.412;5.540;2023-07-16T14:52:56;26.90;76.80
24262;DHT22;12385;51.412;5.540;2023-07-16T14:55:21;27.30;77.50
24262;DHT22;12385;51.412;5.540;2023-07-16T14:57:48;27.50;74.70
24262;DHT22;12385;51.412;5.540;2023-07-16T15:00:14;27.50;73.60
24262;DHT22;12385;51.412;5.540;2023-07-16T15:02:40;27.50;74.10
24262;DHT22;12385;51.412;5.540;2023-07-16T15:05:08;27.50;74.00
24262;DHT22;12385;51.412;5.540;2023-07-16T15:07:34;27.50;73.50
24262;DHT22;12385;51.412;5.540;2023-07-16T15:10:01;27.40;73.00
24262;DHT22;12385;51.412;5.540;2023-07-16T15:12:27;27.30;72.60
24262;DHT22;12385;51.412;5.540;2023-07-16T15:14:53;27.20;73.40
24262;DHT22;12385;51.412;5.540;2023-07-16T15:17:18;27.00;72.70
24262;DHT22;12385;51.412;5.540;2023-07-16T15:19:44;26.80;73.30
24262;DHT22;12385;51.412;5.540;2023-07-16T15:22:10;26.60;73.20
24262;DHT22;12385;51.412;5.540;2023-07-16T15:24:36;26.30;73.80
24262;DHT22;12385;51.412;5.540;2023-07-16T15:27:05;25.90;74.00
24262;DHT22;12385;51.412;5.540;2023-07-16T15:29:31;25.60;74.00
24262;DHT22;12385;51.412;5.540;2023-07-16T15:32:00;25.50;75.30
24262;DHT22;12385;51.412;5.540;2023-07-16T15:34:26;25.40;76.50
24262;DHT22;12385;51.412;5.540;2023-07-16T15:36:51;25.30;78.40